K-marine X — WDH2136 — position and weather

sailwx.info

Track history (hours):
 
Tides and Currents Weather Stations Pressure Air Temp Water Temp Dewpoint Dewpoint Depression Visibility Wind Speed Wind Dir Waves Ship Positions

K-marine X

Owner: Yellow Fin Marine Services, LLC, Gray, LA. More information available from US FCC via Universal Licensing System and Coast Guard Vessel Documentation Center.

Last reported at 2018-Jan-08 06:38 UTC. Time now 2018-Feb-23 09:02 UTC.
Position N 29°47' W 092°10'.
Warning: this ship's position is 46 days out of date.

Length 80 m; draft 3 m.

Type: Other ship. MMSI: 367594740.

Date/timePositionNaut miles runAvg speedWind from/ knotsBaromVisibWave heightAir tempDewpointWater temp
2018-Jan-08 06:38N 29°47' W 092°10'0 0.1
2018-Jan-08 06:29N 29°47' W 092°10'0 0.0
2018-Jan-08 05:59N 29°47' W 092°10'0 0.0
2018-Jan-08 05:28N 29°47' W 092°10'0 0.0
2018-Jan-08 04:58N 29°47' W 092°10'0 0.0
2018-Jan-08 04:28N 29°47' W 092°10'0 0.7
2018-Jan-08 04:00N 29°47' W 092°11'1 1.1
2018-Jan-08 03:30N 29°47' W 092°11'0 0.0
2018-Jan-08 03:00N 29°47' W 092°11'0 0.7
2018-Jan-08 02:30N 29°47' W 092°11'2 3.6
2018-Jan-08 02:00N 29°45' W 092°12'3 6.0
2018-Jan-08 01:31N 29°43' W 092°15'  
2018-Jan-02 04:11N 29°42' W 092°15'1 5.5
2018-Jan-02 04:00N 29°43' W 092°15'3 5.7
2018-Jan-02 03:31N 29°45' W 092°13'2 4.3
2018-Jan-02 03:00N 29°47' W 092°11'0 0.6
2018-Jan-02 02:28N 29°47' W 092°11'0 0.0
2018-Jan-02 01:58N 29°47' W 092°11'0 0.0
2018-Jan-02 01:28N 29°47' W 092°11'0 0.0
2018-Jan-02 00:58N 29°47' W 092°11'0 0.0
2018-Jan-02 00:28N 29°47' W 092°11'0 0.0
2018-Jan-01 23:58N 29°47' W 092°11'0 0.0
2018-Jan-01 23:28N 29°47' W 092°11'0 0.0
2018-Jan-01 22:58N 29°47' W 092°11'0 0.0
2018-Jan-01 22:28N 29°47' W 092°11'0 0.0
2018-Jan-01 21:58N 29°47' W 092°11'0 0.0
2018-Jan-01 21:28N 29°47' W 092°11'0 0.0
2018-Jan-01 20:58N 29°47' W 092°11'0 0.0
2018-Jan-01 20:28N 29°47' W 092°11'0 0.0
2018-Jan-01 19:58N 29°47' W 092°11'0 0.0
2018-Jan-01 19:28N 29°47' W 092°11'0 0.0
2018-Jan-01 18:58N 29°47' W 092°11'0 0.0
2018-Jan-01 18:28N 29°47' W 092°11'0 0.0
2018-Jan-01 17:58N 29°47' W 092°11'0 0.0
2018-Jan-01 17:28N 29°47' W 092°11'0 0.0
2018-Jan-01 14:58N 29°47' W 092°11'0 0.0
2018-Jan-01 14:28N 29°47' W 092°11'0 0.0
2018-Jan-01 13:58N 29°47' W 092°11'0 0.0
2018-Jan-01 13:28N 29°47' W 092°11'0 0.0
2018-Jan-01 12:58N 29°47' W 092°11'0 0.0
2018-Jan-01 11:58N 29°47' W 092°11'0 0.0
2018-Jan-01 11:28N 29°47' W 092°11'0 0.0
2018-Jan-01 10:58N 29°47' W 092°11'0 0.0
2018-Jan-01 10:28N 29°47' W 092°11'0 0.0
2018-Jan-01 09:58N 29°47' W 092°11'0 0.0
2018-Jan-01 09:28N 29°47' W 092°11'0 0.0
2018-Jan-01 08:28N 29°47' W 092°11'0 0.0
2018-Jan-01 07:58N 29°47' W 092°11'0 0.0
2018-Jan-01 07:22N 29°47' W 092°11'0 0.0
2018-Jan-01 06:58N 29°47' W 092°11'0 0.0
2018-Jan-01 05:58N 29°47' W 092°11'0 0.0
2018-Jan-01 05:28N 29°47' W 092°11'0 0.7
2018-Jan-01 05:00N 29°47' W 092°11'7 7.2
2018-Jan-01 04:00N 29°41' W 092°15'  
Track history (hours):
 
Tides and Currents Weather Stations Pressure Air Temp Water Temp Dewpoint Dewpoint Depression Visibility Wind Speed Wind Dir Waves Ship Positions

K-marine X

Owner: Yellow Fin Marine Services, LLC, Gray, LA. More information available from US FCC via Universal Licensing System and Coast Guard Vessel Documentation Center.

Last reported at 2018-Jan-08 06:38 UTC. Time now 2018-Feb-23 09:02 UTC.
Position N 29°47' W 092°10'.
Warning: this ship's position is 46 days out of date.

Length 80 m; draft 3 m.

Type: Other ship. MMSI: 367594740.

Date/timePositionNaut miles runAvg speedWind from/ knotsBaromVisibWave heightAir tempDewpointWater temp
2018-Jan-08 06:38N 29°47' W 092°10'0 0.1
2018-Jan-08 06:29N 29°47' W 092°10'0 0.0
2018-Jan-08 05:59N 29°47' W 092°10'0 0.0
2018-Jan-08 05:28N 29°47' W 092°10'0 0.0
2018-Jan-08 04:58N 29°47' W 092°10'0 0.0
2018-Jan-08 04:28N 29°47' W 092°10'0 0.7
2018-Jan-08 04:00N 29°47' W 092°11'1 1.1
2018-Jan-08 03:30N 29°47' W 092°11'0 0.0
2018-Jan-08 03:00N 29°47' W 092°11'0 0.7
2018-Jan-08 02:30N 29°47' W 092°11'2 3.6
2018-Jan-08 02:00N 29°45' W 092°12'3 6.0
2018-Jan-08 01:31N 29°43' W 092°15'  
2018-Jan-02 04:11N 29°42' W 092°15'1 5.5
2018-Jan-02 04:00N 29°43' W 092°15'3 5.7
2018-Jan-02 03:31N 29°45' W 092°13'2 4.3
2018-Jan-02 03:00N 29°47' W 092°11'0 0.6
2018-Jan-02 02:28N 29°47' W 092°11'0 0.0
2018-Jan-02 01:58N 29°47' W 092°11'0 0.0
2018-Jan-02 01:28N 29°47' W 092°11'0 0.0
2018-Jan-02 00:58N 29°47' W 092°11'0 0.0
2018-Jan-02 00:28N 29°47' W 092°11'0 0.0
2018-Jan-01 23:58N 29°47' W 092°11'0 0.0
2018-Jan-01 23:28N 29°47' W 092°11'0 0.0
2018-Jan-01 22:58N 29°47' W 092°11'0 0.0
2018-Jan-01 22:28N 29°47' W 092°11'0 0.0
2018-Jan-01 21:58N 29°47' W 092°11'0 0.0
2018-Jan-01 21:28N 29°47' W 092°11'0 0.0
2018-Jan-01 20:58N 29°47' W 092°11'0 0.0
2018-Jan-01 20:28N 29°47' W 092°11'0 0.0
2018-Jan-01 19:58N 29°47' W 092°11'0 0.0
2018-Jan-01 19:28N 29°47' W 092°11'0 0.0
2018-Jan-01 18:58N 29°47' W 092°11'0 0.0
2018-Jan-01 18:28N 29°47' W 092°11'0 0.0
2018-Jan-01 17:58N 29°47' W 092°11'0 0.0
2018-Jan-01 17:28N 29°47' W 092°11'0 0.0
2018-Jan-01 14:58N 29°47' W 092°11'0 0.0
2018-Jan-01 14:28N 29°47' W 092°11'0 0.0
2018-Jan-01 13:58N 29°47' W 092°11'0 0.0
2018-Jan-01 13:28N 29°47' W 092°11'0 0.0
2018-Jan-01 12:58N 29°47' W 092°11'0 0.0
2018-Jan-01 11:58N 29°47' W 092°11'0 0.0
2018-Jan-01 11:28N 29°47' W 092°11'0 0.0
2018-Jan-01 10:58N 29°47' W 092°11'0 0.0
2018-Jan-01 10:28N 29°47' W 092°11'0 0.0
2018-Jan-01 09:58N 29°47' W 092°11'0 0.0
2018-Jan-01 09:28N 29°47' W 092°11'0 0.0
2018-Jan-01 08:28N 29°47' W 092°11'0 0.0
2018-Jan-01 07:58N 29°47' W 092°11'0 0.0
2018-Jan-01 07:22N 29°47' W 092°11'0 0.0
2018-Jan-01 06:58N 29°47' W 092°11'0 0.0
2018-Jan-01 05:58N 29°47' W 092°11'0 0.0
2018-Jan-01 05:28N 29°47' W 092°11'0 0.7
2018-Jan-01 05:00N 29°47' W 092°11'7 7.2
2018-Jan-01 04:00N 29°41' W 092°15'  

Dump ship's entire track history